sensor_id;sensor_type;location;lat;lon;timestamp;pressure;altitude;pressure_sealevel;temperature;humidity
75051;BME280;63628;47.656;11.310;2023-07-13T00:00:38;94777.78;;;22.60;58.01
75051;BME280;63628;47.656;11.310;2023-07-13T00:03:06;94773.41;;;22.72;57.39
75051;BME280;63628;47.656;11.310;2023-07-13T00:05:33;94773.88;;;22.74;57.50
75051;BME280;63628;47.656;11.310;2023-07-13T00:07:59;94781.44;;;22.64;58.14
75051;BME280;63628;47.656;11.310;2023-07-13T00:10:26;94780.81;;;21.86;62.48
75051;BME280;63628;47.656;11.310;2023-07-13T00:12:53;94776.38;;;21.54;62.68
75051;BME280;63628;47.656;11.310;2023-07-13T00:15:23;94759.34;;;22.31;58.60
75051;BME280;63628;47.656;11.310;2023-07-13T00:17:50;94765.06;;;22.60;57.60
75051;BME280;63628;47.656;11.310;2023-07-13T00:20:19;94773.03;;;22.65;57.66
75051;BME280;63628;47.656;11.310;2023-07-13T00:22:48;94771.31;;;22.69;57.00
75051;BME280;63628;47.656;11.310;2023-07-13T00:25:15;94767.81;;;22.69;56.45
75051;BME280;63628;47.656;11.310;2023-07-13T00:27:44;94775.25;;;22.63;57.43
75051;BME280;63628;47.656;11.310;2023-07-13T00:30:11;94770.81;;;22.67;57.38
75051;BME280;63628;47.656;11.310;2023-07-13T00:32:38;94783.47;;;22.58;57.49
75051;BME280;63628;47.656;11.310;2023-07-13T00:35:05;94777.03;;;22.68;56.95
75051;BME280;63628;47.656;11.310;2023-07-13T00:37:33;94774.44;;;22.63;57.46
75051;BME280;63628;47.656;11.310;2023-07-13T00:40:02;94771.44;;;22.64;56.97
75051;BME280;63628;47.656;11.310;2023-07-13T00:42:29;94771.31;;;22.69;56.79
75051;BME280;63628;47.656;11.310;2023-07-13T00:46:02;94774.81;;;22.03;61.23
75051;BME280;63628;47.656;11.310;2023-07-13T00:47:55;94778.28;;;22.17;58.44
75051;BME280;63628;47.656;11.310;2023-07-13T00:50:23;94766.31;;;22.54;57.29
75051;BME280;63628;47.656;11.310;2023-07-13T00:52:53;94759.38;;;22.62;56.96
75051;BME280;63628;47.656;11.310;2023-07-13T00:55:22;94759.81;;;22.33;58.14
75051;BME280;63628;47.656;11.310;2023-07-13T00:57:48;94748.00;;;22.42;57.65
75051;BME280;63628;47.656;11.310;2023-07-13T01:00:16;94755.81;;;22.53;57.41
75051;BME280;63628;47.656;11.310;2023-07-13T01:02:47;94767.91;;;22.55;57.24
75051;BME280;63628;47.656;11.310;2023-07-13T01:05:18;94767.28;;;21.64;61.23
75051;BME280;63628;47.656;11.310;2023-07-13T01:07:48;94752.41;;;22.02;58.94
75051;BME280;63628;47.656;11.310;2023-07-13T01:10:19;94747.50;;;22.40;57.86
75051;BME280;63628;47.656;11.310;2023-07-13T01:12:47;94731.94;;;22.37;57.20
75051;BME280;63628;47.656;11.310;2023-07-13T01:15:33;94757.91;;;22.56;56.79
75051;BME280;63628;47.656;11.310;2023-07-13T01:18:00;94744.38;;;22.47;57.03
75051;BME280;63628;47.656;11.310;2023-07-13T01:20:28;94758.22;;;22.32;57.90
75051;BME280;63628;47.656;11.310;2023-07-13T01:22:56;94738.00;;;22.43;57.14
75051;BME280;63628;47.656;11.310;2023-07-13T01:25:23;94738.66;;;22.49;57.01
75051;BME280;63628;47.656;11.310;2023-07-13T01:27:50;94737.38;;;22.46;56.98
75051;BME280;63628;47.656;11.310;2023-07-13T01:30:17;94737.19;;;22.42;57.32
75051;BME280;63628;47.656;11.310;2023-07-13T01:32:43;94741.06;;;22.50;56.51
75051;BME280;63628;47.656;11.310;2023-07-13T01:35:10;94733.16;;;22.31;57.26
75051;BME280;63628;47.656;11.310;2023-07-13T01:37:39;94725.75;;;22.37;57.39
75051;BME280;63628;47.656;11.310;2023-07-13T01:40:08;94722.13;;;22.41;56.90
75051;BME280;63628;47.656;11.310;2023-07-13T01:42:35;94734.50;;;22.42;56.99
75051;BME280;63628;47.656;11.310;2023-07-13T01:45:02;94731.63;;;22.39;57.01
75051;BME280;63628;47.656;11.310;2023-07-13T01:47:28;94730.22;;;22.41;56.90
75051;BME280;63628;47.656;11.310;2023-07-13T01:49:57;94711.28;;;22.33;56.72
75051;BME280;63628;47.656;11.310;2023-07-13T01:52:24;94729.53;;;22.36;57.17
75051;BME280;63628;47.656;11.310;2023-07-13T01:54:51;94727.34;;;22.38;56.87
75051;BME280;63628;47.656;11.310;2023-07-13T01:57:19;94732.72;;;20.56;63.86
75051;BME280;63628;47.656;11.310;2023-07-13T01:59:46;94741.75;;;18.91;72.77
75051;BME280;63628;47.656;11.310;2023-07-13T02:02:12;94738.47;;;21.64;59.64
75051;BME280;63628;47.656;11.310;2023-07-13T02:04:40;94750.13;;;22.09;58.06
75051;BME280;63628;47.656;11.310;2023-07-13T02:07:07;94746.91;;;22.21;57.42
75051;BME280;63628;47.656;11.310;2023-07-13T02:09:34;94747.00;;;22.02;57.60
75051;BME280;63628;47.656;11.310;2023-07-13T02:12:01;94754.81;;;22.04;57.78
75051;BME280;63628;47.656;11.310;2023-07-13T02:14:29;94759.41;;;22.17;57.55
75051;BME280;63628;47.656;11.310;2023-07-13T02:16:56;94765.28;;;22.19;57.44
75051;BME280;63628;47.656;11.310;2023-07-13T02:19:23;94773.06;;;22.21;57.32
75051;BME280;63628;47.656;11.310;2023-07-13T02:21:50;94764.19;;;22.20;56.94
75051;BME280;63628;47.656;11.310;2023-07-13T02:24:17;94768.16;;;22.23;56.97
75051;BME280;63628;47.656;11.310;2023-07-13T02:26:46;94768.47;;;22.21;56.97
75051;BME280;63628;47.656;11.310;2023-07-13T02:29:12;94777.34;;;22.22;56.88
75051;BME280;63628;47.656;11.310;2023-07-13T02:31:41;94777.34;;;22.22;56.78
75051;BME280;63628;47.656;11.310;2023-07-13T02:34:08;94786.38;;;22.17;57.00
75051;BME280;63628;47.656;11.310;2023-07-13T02:36:34;94791.44;;;22.19;56.92
75051;BME280;63628;47.656;11.310;2023-07-13T02:39:03;94804.13;;;22.18;56.79
75051;BME280;63628;47.656;11.310;2023-07-13T02:41:29;94808.72;;;22.18;56.73
75051;BME280;63628;47.656;11.310;2023-07-13T02:43:58;94811.53;;;22.12;57.17
75051;BME280;63628;47.656;11.310;2023-07-13T02:46:30;94818.03;;;22.11;56.98
75051;BME280;63628;47.656;11.310;2023-07-13T02:48:58;94826.41;;;22.10;57.09
75051;BME280;63628;47.656;11.310;2023-07-13T02:51:25;94826.44;;;21.69;59.23
75051;BME280;63628;47.656;11.310;2023-07-13T02:53:51;94834.16;;;21.48;60.29
75051;BME280;63628;47.656;11.310;2023-07-13T02:56:21;94830.25;;;20.62;62.81
75051;BME280;63628;47.656;11.310;2023-07-13T02:58:48;94831.63;;;21.38;59.59
75051;BME280;63628;47.656;11.310;2023-07-13T03:01:14;94839.59;;;21.84;57.85
75051;BME280;63628;47.656;11.310;2023-07-13T03:03:45;94841.94;;;21.63;58.47
75051;BME280;63628;47.656;11.310;2023-07-13T03:06:15;94848.00;;;21.82;58.30
75051;BME280;63628;47.656;11.310;2023-07-13T03:08:42;94843.78;;;21.90;57.70
75051;BME280;63628;47.656;11.310;2023-07-13T03:11:11;94851.97;;;21.85;58.14
75051;BME280;63628;47.656;11.310;2023-07-13T03:13:39;94824.38;;;21.66;58.22
75051;BME280;63628;47.656;11.310;2023-07-13T03:16:06;94858.66;;;21.88;58.10
75051;BME280;63628;47.656;11.310;2023-07-13T03:18:33;94860.38;;;21.83;58.16
75051;BME280;63628;47.656;11.310;2023-07-13T03:20:59;94861.75;;;21.81;57.94
75051;BME280;63628;47.656;11.310;2023-07-13T03:23:28;94866.75;;;21.88;57.67
75051;BME280;63628;47.656;11.310;2023-07-13T03:26:01;94860.97;;;21.67;58.31
75051;BME280;63628;47.656;11.310;2023-07-13T03:28:29;94868.84;;;21.77;57.86
75051;BME280;63628;47.656;11.310;2023-07-13T03:31:03;94863.25;;;21.87;57.56
75051;BME280;63628;47.656;11.310;2023-07-13T03:33:30;94861.88;;;21.76;58.16
75051;BME280;63628;47.656;11.310;2023-07-13T03:35:58;94852.09;;;21.80;57.83
75051;BME280;63628;47.656;11.310;2023-07-13T03:38:24;94855.09;;;21.78;57.75
75051;BME280;63628;47.656;11.310;2023-07-13T03:40:53;94852.09;;;21.80;57.47
75051;BME280;63628;47.656;11.310;2023-07-13T03:43:22;94853.00;;;21.75;57.98
75051;BME280;63628;47.656;11.310;2023-07-13T03:45:49;94849.00;;;21.73;58.24
75051;BME280;63628;47.656;11.310;2023-07-13T03:48:15;94847.72;;;21.70;58.39
75051;BME280;63628;47.656;11.310;2023-07-13T03:50:42;94855.78;;;21.70;58.26
75051;BME280;63628;47.656;11.310;2023-07-13T03:53:09;94852.09;;;21.66;58.27
75051;BME280;63628;47.656;11.310;2023-07-13T03:55:36;94854.19;;;21.69;58.15
75051;BME280;63628;47.656;11.310;2023-07-13T03:58:26;94856.88;;;21.69;58.01
75051;BME280;63628;47.656;11.310;2023-07-13T04:00:53;94861.69;;;21.72;57.83
75051;BME280;63628;47.656;11.310;2023-07-13T04:03:20;94855.19;;;21.73;57.70
75051;BME280;63628;47.656;11.310;2023-07-13T04:05:46;94859.78;;;21.73;57.61
75051;BME280;63628;47.656;11.310;2023-07-13T04:08:13;94857.38;;;21.71;57.34
75051;BME280;63628;47.656;11.310;2023-07-13T04:10:40;94860.06;;;21.71;57.26
75051;BME280;63628;47.656;11.310;2023-07-13T04:13:06;94861.47;;;21.69;57.30
75051;BME280;63628;47.656;11.310;2023-07-13T04:15:34;94874.16;;;21.68;57.43
75051;BME280;63628;47.656;11.310;2023-07-13T04:18:03;94877.25;;;21.62;57.89
75051;BME280;63628;47.656;11.310;2023-07-13T04:20:30;94881.34;;;21.59;58.07
75051;BME280;63628;47.656;11.310;2023-07-13T04:22:57;94888.13;;;21.57;58.22
75051;BME280;63628;47.656;11.310;2023-07-13T04:25:24;94885.34;;;21.62;57.90
75051;BME280;63628;47.656;11.310;2023-07-13T04:27:54;94887.22;;;21.61;57.81
75051;BME280;63628;47.656;11.310;2023-07-13T04:30:21;94887.13;;;21.66;57.26
75051;BME280;63628;47.656;11.310;2023-07-13T04:32:50;94896.41;;;21.60;57.84
75051;BME280;63628;47.656;11.310;2023-07-13T04:35:16;94885.72;;;21.55;57.46
75051;BME280;63628;47.656;11.310;2023-07-13T04:37:43;94900.41;;;21.63;57.32
75051;BME280;63628;47.656;11.310;2023-07-13T04:40:11;94904.19;;;21.62;57.58
75051;BME280;63628;47.656;11.310;2023-07-13T04:42:38;94905.59;;;21.59;57.68
75051;BME280;63628;47.656;11.310;2023-07-13T04:45:06;94897.19;;;21.61;57.27
75051;BME280;63628;47.656;11.310;2023-07-13T04:47:33;94897.19;;;21.61;57.34
75051;BME280;63628;47.656;11.310;2023-07-13T04:50:02;94907.69;;;21.62;57.20
75051;BME280;63628;47.656;11.310;2023-07-13T04:52:29;94902.38;;;21.57;57.31
75051;BME280;63628;47.656;11.310;2023-07-13T04:54:55;94907.69;;;20.03;69.59
75051;BME280;63628;47.656;11.310;2023-07-13T04:57:22;94907.97;;;19.59;70.01
75051;BME280;63628;47.656;11.310;2023-07-13T04:59:49;94916.59;;;19.56;68.07
75051;BME280;63628;47.656;11.310;2023-07-13T05:02:16;94919.47;;;20.50;62.33
75051;BME280;63628;47.656;11.310;2023-07-13T05:04:46;94919.22;;;20.65;63.21
75051;BME280;63628;47.656;11.310;2023-07-13T05:07:14;94922.78;;;20.98;60.18
75051;BME280;63628;47.656;11.310;2023-07-13T05:09:41;94909.13;;;21.27;58.49
75051;BME280;63628;47.656;11.310;2023-07-13T05:12:08;94922.19;;;21.34;58.86
75051;BME280;63628;47.656;11.310;2023-07-13T05:14:35;94917.50;;;21.39;57.88
75051;BME280;63628;47.656;11.310;2023-07-13T05:17:02;94912.63;;;21.41;57.92
75051;BME280;63628;47.656;11.310;2023-07-13T05:19:30;94912.22;;;21.34;58.45
75051;BME280;63628;47.656;11.310;2023-07-13T05:21:56;94907.84;;;21.38;58.33
75051;BME280;63628;47.656;11.310;2023-07-13T05:24:24;94913.22;;;21.38;58.04
75051;BME280;63628;47.656;11.310;2023-07-13T05:26:51;94914.59;;;21.36;58.23
75051;BME280;63628;47.656;11.310;2023-07-13T05:29:19;94919.69;;;21.37;58.24
75051;BME280;63628;47.656;11.310;2023-07-13T05:31:46;94919.69;;;21.37;58.16
75051;BME280;63628;47.656;11.310;2023-07-13T05:34:13;94912.41;;;21.38;58.24
75051;BME280;63628;47.656;11.310;2023-07-13T05:36:40;94914.00;;;21.39;57.93
75051;BME280;63628;47.656;11.310;2023-07-13T05:39:06;94922.38;;;21.37;57.88
75051;BME280;63628;47.656;11.310;2023-07-13T05:41:35;94909.81;;;21.33;57.75
75051;BME280;63628;47.656;11.310;2023-07-13T05:44:02;94913.72;;;21.40;57.48
75051;BME280;63628;47.656;11.310;2023-07-13T05:46:29;94918.31;;;21.40;57.53
75051;BME280;63628;47.656;11.310;2023-07-13T05:48:55;94916.41;;;21.40;57.53
75051;BME280;63628;47.656;11.310;2023-07-13T05:51:22;94919.91;;;21.41;57.28
75051;BME280;63628;47.656;11.310;2023-07-13T05:53:49;94924.81;;;19.65;71.58
75051;BME280;63628;47.656;11.310;2023-07-13T05:56:18;94921.41;;;20.82;59.84
75051;BME280;63628;47.656;11.310;2023-07-13T05:58:47;94922.72;;;21.17;58.12
75051;BME280;63628;47.656;11.310;2023-07-13T06:01:15;94932.97;;;20.82;65.37
75051;BME280;63628;47.656;11.310;2023-07-13T06:03:43;94931.13;;;20.97;64.05
75051;BME280;63628;47.656;11.310;2023-07-13T06:06:10;94932.41;;;21.18;58.30
75051;BME280;63628;47.656;11.310;2023-07-13T06:08:39;94943.31;;;21.27;58.06
75051;BME280;63628;47.656;11.310;2023-07-13T06:11:07;94948.69;;;21.27;58.13
75051;BME280;63628;47.656;11.310;2023-07-13T06:13:34;94948.69;;;21.27;58.07
75051;BME280;63628;47.656;11.310;2023-07-13T06:16:03;94954.88;;;21.27;58.17
75051;BME280;63628;47.656;11.310;2023-07-13T06:18:33;94958.59;;;21.31;57.76
75051;BME280;63628;47.656;11.310;2023-07-13T06:21:04;94961.38;;;21.26;57.98
75051;BME280;63628;47.656;11.310;2023-07-13T06:23:31;94962.47;;;21.25;57.84
75051;BME280;63628;47.656;11.310;2023-07-13T06:25:58;94962.75;;;21.24;58.15
75051;BME280;63628;47.656;11.310;2023-07-13T06:28:25;94961.38;;;21.26;57.85
75051;BME280;63628;47.656;11.310;2023-07-13T06:30:52;94962.97;;;21.27;57.91
75051;BME280;63628;47.656;11.310;2023-07-13T06:33:20;94959.59;;;21.35;57.61
75051;BME280;63628;47.656;11.310;2023-07-13T06:35:46;94957.53;;;20.76;65.68
75051;BME280;63628;47.656;11.310;2023-07-13T06:38:13;94964.88;;;20.70;60.59
75051;BME280;63628;47.656;11.310;2023-07-13T06:40:39;94963.56;;;21.05;58.80
75051;BME280;63628;47.656;11.310;2023-07-13T06:43:07;94966.75;;;21.07;58.87
75051;BME280;63628;47.656;11.310;2023-07-13T06:45:41;94963.91;;;21.17;58.52
75051;BME280;63628;47.656;11.310;2023-07-13T06:48:08;94960.28;;;21.27;59.28
75051;BME280;63628;47.656;11.310;2023-07-13T06:50:36;94961.66;;;21.25;58.03
75051;BME280;63628;47.656;11.310;2023-07-13T06:53:03;94964.41;;;21.19;58.31
75051;BME280;63628;47.656;11.310;2023-07-13T06:55:29;94964.50;;;21.14;58.49
75051;BME280;63628;47.656;11.310;2023-07-13T06:57:57;94967.38;;;21.18;58.56
75051;BME280;63628;47.656;11.310;2023-07-13T07:00:26;94959.72;;;20.93;64.74
75051;BME280;63628;47.656;11.310;2023-07-13T07:02:53;94967.94;;;19.44;72.09
75051;BME280;63628;47.656;11.310;2023-07-13T07:05:20;94960.91;;;20.49;61.74
75051;BME280;63628;47.656;11.310;2023-07-13T07:07:50;94965.84;;;20.98;59.39
75051;BME280;63628;47.656;11.310;2023-07-13T07:10:17;94960.97;;;21.00;59.15
75051;BME280;63628;47.656;11.310;2023-07-13T07:12:44;94967.47;;;21.13;58.50
75051;BME280;63628;47.656;11.310;2023-07-13T07:15:11;94969.88;;;21.14;58.58
75051;BME280;63628;47.656;11.310;2023-07-13T07:17:38;94965.97;;;21.07;58.94
75051;BME280;63628;47.656;11.310;2023-07-13T07:20:06;94984.94;;;21.15;61.50
75051;BME280;63628;47.656;11.310;2023-07-13T07:22:33;94986.78;;;20.21;71.69
75051;BME280;63628;47.656;11.310;2023-07-13T07:25:01;94985.19;;;20.81;60.89
75051;BME280;63628;47.656;11.310;2023-07-13T07:27:28;94991.66;;;20.99;59.82
75051;BME280;63628;47.656;11.310;2023-07-13T07:29:59;94989.19;;;21.03;59.61
75051;BME280;63628;47.656;11.310;2023-07-13T07:32:29;94990.56;;;21.00;59.62
75051;BME280;63628;47.656;11.310;2023-07-13T07:35:16;94993.91;;;20.92;59.96
75051;BME280;63628;47.656;11.310;2023-07-13T07:37:43;95007.78;;;20.62;61.80
75051;BME280;63628;47.656;11.310;2023-07-13T07:40:15;95004.69;;;20.92;59.96
75051;BME280;63628;47.656;11.310;2023-07-13T07:42:45;95006.56;;;20.92;64.89
75051;BME280;63628;47.656;11.310;2023-07-13T07:45:11;95017.53;;;20.34;66.58
75051;BME280;63628;47.656;11.310;2023-07-13T07:47:38;95014.47;;;20.64;64.71
75051;BME280;63628;47.656;11.310;2023-07-13T07:50:06;95018.72;;;20.89;59.97
75051;BME280;63628;47.656;11.310;2023-07-13T07:52:33;95029.25;;;20.85;60.06
75051;BME280;63628;47.656;11.310;2023-07-13T07:54:59;95025.47;;;20.86;61.10
75051;BME280;63628;47.656;11.310;2023-07-13T07:57:30;95025.34;;;20.97;59.44
75051;BME280;63628;47.656;11.310;2023-07-13T08:00:00;95022.78;;;20.86;59.63
75051;BME280;63628;47.656;11.310;2023-07-13T08:02:29;95028.81;;;20.97;59.58
75051;BME280;63628;47.656;11.310;2023-07-13T08:04:59;95022.84;;;21.00;59.64
75051;BME280;63628;47.656;11.310;2023-07-13T08:07:30;95029.34;;;20.99;59.57
75051;BME280;63628;47.656;11.310;2023-07-13T08:10:00;95038.22;;;21.00;60.27
75051;BME280;63628;47.656;11.310;2023-07-13T08:12:27;95043.09;;;20.55;61.25
75051;BME280;63628;47.656;11.310;2023-07-13T08:14:58;95033.19;;;20.93;59.69
75051;BME280;63628;47.656;11.310;2023-07-13T08:17:27;95041.16;;;20.79;63.16
75051;BME280;63628;47.656;11.310;2023-07-13T08:19:54;95033.47;;;20.92;59.62
75051;BME280;63628;47.656;11.310;2023-07-13T08:22:21;95033.69;;;20.95;59.74
75051;BME280;63628;47.656;11.310;2023-07-13T08:24:48;95036.09;;;20.97;59.35
75051;BME280;63628;47.656;11.310;2023-07-13T08:27:22;95032.59;;;20.96;59.38
75051;BME280;63628;47.656;11.310;2023-07-13T08:29:49;95029.69;;;20.93;59.47
75051;BME280;63628;47.656;11.310;2023-07-13T08:32:17;95034.78;;;20.94;59.70
75051;BME280;63628;47.656;11.310;2023-07-13T08:34:44;95031.66;;;20.87;60.15
75051;BME280;63628;47.656;11.310;2023-07-13T08:37:11;95032.59;;;20.96;59.34
75051;BME280;63628;47.656;11.310;2023-07-13T08:39:38;95034.06;;;20.88;59.62
75051;BME280;63628;47.656;11.310;2023-07-13T08:42:11;95029.13;;;20.96;59.11
75051;BME280;63628;47.656;11.310;2023-07-13T08:44:52;95033.63;;;21.00;58.89
75051;BME280;63628;47.656;11.310;2023-07-13T08:47:24;95047.31;;;20.37;63.80
75051;BME280;63628;47.656;11.310;2023-07-13T08:49:51;95058.25;;;20.70;61.10
75051;BME280;63628;47.656;11.310;2023-07-13T08:52:28;95060.34;;;20.73;60.75
75051;BME280;63628;47.656;11.310;2023-07-13T08:54:58;95070.34;;;20.48;61.06
75051;BME280;63628;47.656;11.310;2023-07-13T08:57:33;95078.25;;;20.40;61.93
75051;BME280;63628;47.656;11.310;2023-07-13T09:00:00;95082.75;;;20.20;63.04
75051;BME280;63628;47.656;11.310;2023-07-13T09:02:35;95080.41;;;20.62;60.29
75051;BME280;63628;47.656;11.310;2023-07-13T09:05:12;95092.63;;;20.73;60.59
75051;BME280;63628;47.656;11.310;2023-07-13T09:07:53;95090.63;;;20.83;60.25
75051;BME280;63628;47.656;11.310;2023-07-13T09:10:27;95096.53;;;20.85;60.19
75051;BME280;63628;47.656;11.310;2023-07-13T09:13:02;95095.22;;;20.83;60.08
75051;BME280;63628;47.656;11.310;2023-07-13T09:15:35;95083.22;;;20.51;59.75
75051;BME280;63628;47.656;11.310;2023-07-13T09:18:08;95090.16;;;20.76;60.53
75051;BME280;63628;47.656;11.310;2023-07-13T09:20:41;95090.69;;;20.78;60.35
75051;BME280;63628;47.656;11.310;2023-07-13T09:23:13;95086.63;;;20.81;60.18
75051;BME280;63628;47.656;11.310;2023-07-13T09:25:41;95094.41;;;20.82;60.46
75051;BME280;63628;47.656;11.310;2023-07-13T09:28:16;95085.81;;;20.80;60.46
75051;BME280;63628;47.656;11.310;2023-07-13T09:30:49;95090.38;;;20.80;60.16
75051;BME280;63628;47.656;11.310;2023-07-13T09:33:19;95085.81;;;20.80;60.22
75051;BME280;63628;47.656;11.310;2023-07-13T09:35:46;95091.72;;;20.82;59.85
75051;BME280;63628;47.656;11.310;2023-07-13T09:38:15;95094.94;;;20.84;59.39
75051;BME280;63628;47.656;11.310;2023-07-13T09:40:53;95089.94;;;20.73;59.76
75051;BME280;63628;47.656;11.310;2023-07-13T09:43:23;95099.09;;;20.24;61.52
75051;BME280;63628;47.656;11.310;2023-07-13T09:45:50;95096.25;;;20.10;62.17
75051;BME280;63628;47.656;11.310;2023-07-13T09:48:17;95101.13;;;19.40;65.73
75051;BME280;63628;47.656;11.310;2023-07-13T09:50:46;95092.03;;;19.75;64.19
75051;BME280;63628;47.656;11.310;2023-07-13T09:53:14;95084.59;;;17.89;71.35
75051;BME280;63628;47.656;11.310;2023-07-13T09:55:43;95091.47;;;19.39;64.81
75051;BME280;63628;47.656;11.310;2023-07-13T09:58:12;95094.91;;;20.42;60.99
75051;BME280;63628;47.656;11.310;2023-07-13T10:00:40;95096.59;;;20.56;60.23
75051;BME280;63628;47.656;11.310;2023-07-13T10:03:17;95094.38;;;20.64;60.01
75051;BME280;63628;47.656;11.310;2023-07-13T10:05:46;95089.22;;;20.67;59.64
75051;BME280;63628;47.656;11.310;2023-07-13T10:08:18;95091.91;;;20.67;59.46
75051;BME280;63628;47.656;11.310;2023-07-13T10:10:45;95094.59;;;20.67;59.69
75051;BME280;63628;47.656;11.310;2023-07-13T10:13:31;95102.16;;;20.65;59.65
75051;BME280;63628;47.656;11.310;2023-07-13T10:15:59;95107.00;;;20.63;59.81
75051;BME280;63628;47.656;11.310;2023-07-13T10:18:26;95115.59;;;20.65;59.72
75051;BME280;63628;47.656;11.310;2023-07-13T10:21:18;95126.66;;;20.64;60.11
75051;BME280;63628;47.656;11.310;2023-07-13T10:24:05;95128.59;;;20.58;59.98
75051;BME280;63628;47.656;11.310;2023-07-13T10:26:41;95125.09;;;20.57;59.75
75051;BME280;63628;47.656;11.310;2023-07-13T10:29:11;95122.34;;;20.63;59.61
75051;BME280;63628;47.656;11.310;2023-07-13T10:31:40;95125.03;;;20.63;59.71
75051;BME280;63628;47.656;11.310;2023-07-13T10:34:09;95124.78;;;20.06;62.33
75051;BME280;63628;47.656;11.310;2023-07-13T10:36:43;95125.47;;;20.22;65.24
75051;BME280;63628;47.656;11.310;2023-07-13T10:39:15;95131.31;;;18.67;71.99
75051;BME280;63628;47.656;11.310;2023-07-13T10:41:47;95123.63;;;17.19;74.78
75051;BME280;63628;47.656;11.310;2023-07-13T10:44:21;95126.91;;;17.97;74.76
75051;BME280;63628;47.656;11.310;2023-07-13T10:46:54;95129.09;;;18.90;67.63
75051;BME280;63628;47.656;11.310;2023-07-13T10:49:23;95134.25;;;19.25;67.55
75051;BME280;63628;47.656;11.310;2023-07-13T10:51:51;95136.94;;;18.56;73.69
75051;BME280;63628;47.656;11.310;2023-07-13T10:54:20;95135.72;;;17.97;73.13
75051;BME280;63628;47.656;11.310;2023-07-13T10:56:53;95131.94;;;18.19;74.35
75051;BME280;63628;47.656;11.310;2023-07-13T10:59:35;95129.72;;;18.61;73.46
75051;BME280;63628;47.656;11.310;2023-07-13T11:02:10;95138.16;;;17.79;74.72
75051;BME280;63628;47.656;11.310;2023-07-13T11:04:43;95140.78;;;17.53;74.93
75051;BME280;63628;47.656;11.310;2023-07-13T11:07:20;95132.50;;;18.26;70.92
75051;BME280;63628;47.656;11.310;2023-07-13T11:09:50;95138.72;;;18.96;69.19
75051;BME280;63628;47.656;11.310;2023-07-13T11:12:29;95132.50;;;19.84;64.43
75051;BME280;63628;47.656;11.310;2023-07-13T11:15:28;95137.78;;;19.16;68.58
75051;BME280;63628;47.656;11.310;2023-07-13T11:17:56;95128.81;;;18.91;70.56
75051;BME280;63628;47.656;11.310;2023-07-13T11:20:37;95120.50;;;19.32;68.14
75051;BME280;63628;47.656;11.310;2023-07-13T11:23:18;95126.31;;;18.20;75.79
75051;BME280;63628;47.656;11.310;2023-07-13T11:25:45;95119.19;;;19.74;68.48
75051;BME280;63628;47.656;11.310;2023-07-13T11:28:23;95110.50;;;20.11;65.04
75051;BME280;63628;47.656;11.310;2023-07-13T11:31:01;95102.44;;;18.34;73.38
75051;BME280;63628;47.656;11.310;2023-07-13T11:33:48;95100.88;;;18.28;73.17
75051;BME280;63628;47.656;11.310;2023-07-13T11:36:17;95094.44;;;18.19;73.03
75051;BME280;63628;47.656;11.310;2023-07-13T11:38:55;95094.13;;;18.35;74.10
75051;BME280;63628;47.656;11.310;2023-07-13T11:41:31;95089.59;;;18.36;72.10
75051;BME280;63628;47.656;11.310;2023-07-13T11:44:12;95087.50;;;18.02;71.39
75051;BME280;63628;47.656;11.310;2023-07-13T11:46:44;95092.81;;;18.28;72.01
75051;BME280;63628;47.656;11.310;2023-07-13T11:49:15;95078.41;;;18.03;70.04
75051;BME280;63628;47.656;11.310;2023-07-13T11:51:43;95081.47;;;18.51;69.38
75051;BME280;63628;47.656;11.310;2023-07-13T11:54:23;95077.00;;;18.31;72.26
75051;BME280;63628;47.656;11.310;2023-07-13T11:56:50;95077.06;;;18.81;69.97
75051;BME280;63628;47.656;11.310;2023-07-13T11:59:17;95077.72;;;19.51;69.39
75051;BME280;63628;47.656;11.310;2023-07-13T12:01:48;95080.50;;;19.36;68.33
75051;BME280;63628;47.656;11.310;2023-07-13T12:04:22;95081.91;;;18.79;70.67
75051;BME280;63628;47.656;11.310;2023-07-13T12:06:55;95076.19;;;19.74;65.20
75051;BME280;63628;47.656;11.310;2023-07-13T12:09:26;95073.38;;;20.13;68.00
75051;BME280;63628;47.656;11.310;2023-07-13T12:11:54;95074.53;;;20.07;66.01
75051;BME280;63628;47.656;11.310;2023-07-13T12:14:23;95071.50;;;19.50;66.95
75051;BME280;63628;47.656;11.310;2023-07-13T12:16:51;95068.78;;;19.89;64.76
75051;BME280;63628;47.656;11.310;2023-07-13T12:19:21;95066.38;;;20.65;65.88
75051;BME280;63628;47.656;11.310;2023-07-13T12:21:48;95062.03;;;20.21;68.55
75051;BME280;63628;47.656;11.310;2023-07-13T12:24:16;95067.09;;;20.70;64.95
75051;BME280;63628;47.656;11.310;2023-07-13T12:26:50;95047.56;;;18.81;67.97
75051;BME280;63628;47.656;11.310;2023-07-13T12:29:18;95062.97;;;19.09;67.18
75051;BME280;63628;47.656;11.310;2023-07-13T12:31:46;95061.25;;;19.23;65.28
75051;BME280;63628;47.656;11.310;2023-07-13T12:34:15;95059.13;;;19.88;64.52
75051;BME280;63628;47.656;11.310;2023-07-13T12:36:46;95056.31;;;20.27;63.37
75051;BME280;63628;47.656;11.310;2023-07-13T12:39:18;95046.69;;;19.98;63.88
75051;BME280;63628;47.656;11.310;2023-07-13T12:41:48;95060.03;;;20.32;63.34
75051;BME280;63628;47.656;11.310;2023-07-13T12:44:16;95064.28;;;19.51;63.24
75051;BME280;63628;47.656;11.310;2023-07-13T12:46:58;95062.06;;;19.24;66.69
75051;BME280;63628;47.656;11.310;2023-07-13T12:49:31;95063.78;;;19.10;65.48
75051;BME280;63628;47.656;11.310;2023-07-13T12:52:03;95054.38;;;19.80;63.29
75051;BME280;63628;47.656;11.310;2023-07-13T12:54:33;95030.91;;;20.15;64.17
75051;BME280;63628;47.656;11.310;2023-07-13T12:57:04;95045.75;;;19.54;62.61
75051;BME280;63628;47.656;11.310;2023-07-13T12:59:32;95050.69;;;20.00;63.80
75051;BME280;63628;47.656;11.310;2023-07-13T13:02:00;95052.25;;;19.77;61.10